createdAt,value
2018-04-27T00:00:54.664Z,6.40
2018-04-27T00:01:54.691Z,5.60
2018-04-27T00:02:54.703Z,6.10
2018-04-27T00:03:54.717Z,6.40
2018-04-27T00:04:54.729Z,6.50
2018-04-27T00:05:54.747Z,5.80
2018-04-27T00:06:54.758Z,6.50
2018-04-27T00:07:54.783Z,6.50
2018-04-27T00:08:54.797Z,6.50
2018-04-27T00:09:54.809Z,6.40
2018-04-27T00:10:54.824Z,6.70
2018-04-27T00:11:54.849Z,6.60
2018-04-27T00:12:54.863Z,6.40
2018-04-27T00:13:54.878Z,6.50
2018-04-27T00:14:54.891Z,6.30
2018-04-27T00:15:54.905Z,6.50
2018-04-27T00:16:54.917Z,6.20
2018-04-27T00:17:54.943Z,6.60
2018-04-27T00:18:54.957Z,6.30
2018-04-27T00:19:54.970Z,6.10
2018-04-27T00:20:54.985Z,6.20
2018-04-27T00:21:54.997Z,6.00
2018-04-27T00:22:55.010Z,6.30
2018-04-27T00:23:55.026Z,6.40
2018-04-27T00:24:55.050Z,6.10
2018-04-27T00:25:55.063Z,6.30
2018-04-27T00:26:55.076Z,6.40
2018-04-27T00:27:55.090Z,6.50
2018-04-27T00:28:55.110Z,6.40
2018-04-27T00:29:55.129Z,6.10
2018-04-27T00:30:55.143Z,6.50
2018-04-27T00:31:55.155Z,6.70
2018-04-27T00:32:55.171Z,6.80
2018-04-27T00:33:55.184Z,6.50
2018-04-27T00:34:55.197Z,6.70
2018-04-27T00:35:55.223Z,7.00
2018-04-27T00:36:55.236Z,7.60
2018-04-27T00:37:55.251Z,7.70
2018-04-27T00:38:55.263Z,7.70
2018-04-27T00:39:55.289Z,7.80
2018-04-27T00:40:55.302Z,7.30
2018-04-27T00:41:55.329Z,7.40
2018-04-27T00:42:55.333Z,7.40
2018-04-27T00:43:55.344Z,7.60
2018-04-27T00:44:55.359Z,7.10
2018-04-27T00:45:55.371Z,7.40
2018-04-27T00:46:55.396Z,7.70
2018-04-27T00:47:55.413Z,7.70
2018-04-27T00:48:55.424Z,8.00
2018-04-27T00:49:55.437Z,8.00
2018-04-27T00:50:55.450Z,8.40
2018-04-27T00:51:55.464Z,8.80
2018-04-27T00:52:55.494Z,8.60
2018-04-27T00:53:55.503Z,8.80
2018-04-27T00:54:55.517Z,9.10
2018-04-27T00:55:55.530Z,9.20
2018-04-27T00:56:55.544Z,8.60
2018-04-27T00:57:55.558Z,9.40
2018-04-27T00:58:55.583Z,9.50
2018-04-27T00:59:55.597Z,9.50
2018-04-27T01:00:55.610Z,9.40
2018-04-27T01:01:55.624Z,10.00
2018-04-27T01:02:55.637Z,8.90
2018-04-27T01:03:55.654Z,10.40
2018-04-27T01:04:55.665Z,10.30
2018-04-27T01:05:55.692Z,10.30
2018-04-27T01:06:55.705Z,9.70
2018-04-27T01:07:55.717Z,10.70
2018-04-27T01:08:55.732Z,10.10
2018-04-27T01:09:55.745Z,9.80
2018-04-27T01:10:55.759Z,10.70
2018-04-27T01:11:55.772Z,9.70
2018-04-27T01:12:55.800Z,10.20
2018-04-27T01:13:55.813Z,10.50
2018-04-27T01:14:55.825Z,11.30
2018-04-27T01:15:55.842Z,10.10
2018-04-27T01:16:55.853Z,10.80
2018-04-27T01:17:55.866Z,10.50
2018-04-27T01:18:55.880Z,10.60
2018-04-27T01:19:55.918Z,10.90
2018-04-27T01:20:55.919Z,11.00
2018-04-27T01:21:55.934Z,10.90
2018-04-27T01:22:55.948Z,11.20
2018-04-27T01:23:55.959Z,11.20
2018-04-27T01:24:55.973Z,11.90
2018-04-27T01:25:55.986Z,12.30
2018-04-27T01:26:56.001Z,11.70
2018-04-27T01:27:56.025Z,11.70
2018-04-27T01:28:56.051Z,11.70
2018-04-27T01:29:56.052Z,11.80
2018-04-27T01:30:56.065Z,12.30
2018-04-27T01:31:56.080Z,12.40
2018-04-27T01:32:56.092Z,13.00
2018-04-27T01:33:56.111Z,13.70
2018-04-27T01:34:56.119Z,13.60
2018-04-27T01:35:56.144Z,14.40
2018-04-27T01:36:56.159Z,13.60
2018-04-27T01:37:56.172Z,13.80
2018-04-27T01:38:56.186Z,14.60
2018-04-27T01:39:56.198Z,14.30
2018-04-27T01:40:56.215Z,15.40
2018-04-27T01:41:56.238Z,14.60
2018-04-27T01:42:56.240Z,14.80
2018-04-27T01:43:56.254Z,14.70
2018-04-27T01:44:56.279Z,15.20
2018-04-27T01:45:56.302Z,14.50
2018-04-27T01:46:56.304Z,15.90
2018-04-27T01:47:56.319Z,15.90
2018-04-27T01:48:56.330Z,16.20
2018-04-27T01:49:56.345Z,15.50
2018-04-27T01:50:56.361Z,15.60
2018-04-27T01:51:56.373Z,15.10
2018-04-27T01:52:56.399Z,15.70
2018-04-27T01:53:56.411Z,16.00
2018-04-27T01:54:56.426Z,15.40
2018-04-27T01:55:56.439Z,14.80
2018-04-27T01:56:56.458Z,15.60
2018-04-27T01:57:56.470Z,15.70
2018-04-27T01:58:56.479Z,15.30
2018-04-27T01:59:56.492Z,15.20
2018-04-27T02:00:56.510Z,14.20
2018-04-27T02:01:56.519Z,13.90
2018-04-27T02:02:56.546Z,14.90
2018-04-27T02:03:56.559Z,14.40
2018-04-27T02:04:56.573Z,14.30
2018-04-27T02:05:56.585Z,14.30
2018-04-27T02:06:56.599Z,13.80
2018-04-27T02:07:56.613Z,15.10
2018-04-27T02:08:56.627Z,14.40
2018-04-27T02:09:56.643Z,15.70
2018-04-27T02:10:56.653Z,14.60
2018-04-27T02:11:56.668Z,14.00
2018-04-27T02:12:56.680Z,14.30
2018-04-27T02:13:56.706Z,14.20
2018-04-27T02:14:56.721Z,14.10
2018-04-27T02:15:56.733Z,14.30
2018-04-27T02:16:56.748Z,14.70
2018-04-27T02:17:56.759Z,13.90
2018-04-27T02:18:56.774Z,13.90
2018-04-27T02:19:56.787Z,14.20
2018-04-27T02:20:56.802Z,13.50
2018-04-27T02:21:56.814Z,15.10
2018-04-27T02:22:56.832Z,14.50
2018-04-27T02:23:56.849Z,14.40
2018-04-27T02:24:56.854Z,14.50
2018-04-27T02:25:56.868Z,14.10
2018-04-27T02:26:56.882Z,14.90
2018-04-27T02:27:56.911Z,15.00
2018-04-27T02:28:56.920Z,14.10
2018-04-27T02:29:56.935Z,15.00
2018-04-27T02:30:56.948Z,15.20
2018-04-27T02:31:56.963Z,14.40
2018-04-27T02:32:56.975Z,15.70
2018-04-27T02:33:56.990Z,15.10
2018-04-27T02:34:57.001Z,15.40
2018-04-27T02:35:57.016Z,15.30
2018-04-27T02:36:57.028Z,15.00
2018-04-27T02:37:57.049Z,15.20
2018-04-27T02:38:57.058Z,14.30
2018-04-27T02:39:57.071Z,15.30
2018-04-27T02:40:57.082Z,14.70
2018-04-27T02:41:57.096Z,15.60
2018-04-27T02:42:57.110Z,15.30
2018-04-27T02:43:57.135Z,15.80
2018-04-27T02:44:57.148Z,15.00
2018-04-27T02:45:57.162Z,16.50
2018-04-27T02:46:57.175Z,16.90
2018-04-27T02:47:57.190Z,16.40
2018-04-27T02:48:57.204Z,16.70
2018-04-27T02:49:57.215Z,15.60
2018-04-27T02:50:57.230Z,15.60
2018-04-27T02:51:57.243Z,16.70
2018-04-27T02:52:57.258Z,16.20
2018-04-27T02:53:57.284Z,15.50
2018-04-27T02:54:57.284Z,17.00
2018-04-27T02:55:57.297Z,17.60
2018-04-27T02:56:57.311Z,16.50
2018-04-27T02:57:57.325Z,17.30
2018-04-27T02:58:57.339Z,16.40
2018-04-27T02:59:57.352Z,17.00
2018-04-27T03:00:57.371Z,15.60
2018-04-27T03:01:57.379Z,16.00
2018-04-27T03:02:57.392Z,16.60
2018-04-27T03:03:57.407Z,16.80
2018-04-27T03:04:57.433Z,16.80
2018-04-27T03:05:57.445Z,16.90
2018-04-27T03:06:57.472Z,16.20
2018-04-27T03:07:57.473Z,16.30
2018-04-27T03:08:57.484Z,16.20
2018-04-27T03:09:57.500Z,17.40
2018-04-27T03:10:57.512Z,17.10
2018-04-27T03:11:57.525Z,17.00
2018-04-27T03:12:57.538Z,17.60
2018-04-27T03:13:57.553Z,18.10
2018-04-27T03:14:57.573Z,17.50
2018-04-27T03:15:57.580Z,18.00
2018-04-27T03:16:57.592Z,17.80
2018-04-27T03:17:57.607Z,16.80
2018-04-27T03:18:57.620Z,17.70
2018-04-27T03:19:57.634Z,17.40
2018-04-27T03:20:57.660Z,17.90
2018-04-27T03:21:57.665Z,17.50
2018-04-27T03:22:57.674Z,17.90
2018-04-27T03:23:57.774Z,18.90
2018-04-27T03:24:57.701Z,18.00
2018-04-27T03:25:57.714Z,18.10
2018-04-27T03:26:57.728Z,17.50
2018-04-27T03:27:57.742Z,17.90
2018-04-27T03:28:57.756Z,18.90
2018-04-27T03:29:57.768Z,17.90
2018-04-27T03:30:57.783Z,18.70
2018-04-27T03:31:57.797Z,18.70
2018-04-27T03:32:57.809Z,18.50
2018-04-27T03:33:57.823Z,18.60
2018-04-27T03:34:57.836Z,18.10
2018-04-27T03:35:57.851Z,18.50
2018-04-27T03:36:57.862Z,18.00
2018-04-27T03:37:57.878Z,17.50
2018-04-27T03:38:57.893Z,18.60
2018-04-27T03:39:57.904Z,18.90
2018-04-27T03:40:57.917Z,17.80
2018-04-27T03:41:57.943Z,17.50
2018-04-27T03:42:57.944Z,17.50
2018-04-27T03:43:57.958Z,18.30
2018-04-27T03:44:57.971Z,18.40
2018-04-27T03:45:57.996Z,18.10
2018-04-27T03:46:57.998Z,18.20
2018-04-27T03:47:58.024Z,19.00
2018-04-27T03:48:58.037Z,18.80
2018-04-27T03:49:58.050Z,18.20
2018-04-27T03:50:58.063Z,20.00
2018-04-27T03:51:58.145Z,19.60
2018-04-27T03:52:58.090Z,21.00
2018-04-27T03:53:58.104Z,20.80
2018-04-27T03:54:58.119Z,20.50
2018-04-27T03:55:58.131Z,21.60
2018-04-27T03:56:58.145Z,22.50
2018-04-27T03:57:58.171Z,22.30
2018-04-27T03:58:58.172Z,22.80
2018-04-27T03:59:58.184Z,23.30
2018-04-27T04:00:58.199Z,24.00
2018-04-27T04:01:58.212Z,24.60
2018-04-27T04:02:58.226Z,25.70
2018-04-27T04:03:58.238Z,25.90
2018-04-27T04:04:58.255Z,27.90
2018-04-27T04:05:58.267Z,29.60
2018-04-27T04:06:58.283Z,30.80
2018-04-27T04:07:58.295Z,28.70
2018-04-27T04:08:58.307Z,27.50
2018-04-27T04:09:58.320Z,29.70
2018-04-27T04:10:58.334Z,29.70
2018-04-27T04:11:58.367Z,29.80
2018-04-27T04:12:58.360Z,26.80
2018-04-27T04:13:58.380Z,26.60
2018-04-27T04:14:58.388Z,27.00
2018-04-27T04:15:58.401Z,26.60
2018-04-27T04:16:58.415Z,26.30
2018-04-27T04:17:58.428Z,25.70
2018-04-27T04:18:58.443Z,26.40
2018-04-27T04:19:58.467Z,25.80
2018-04-27T04:20:58.469Z,23.60
2018-04-27T04:21:58.481Z,23.50
2018-04-27T04:22:58.496Z,24.10
2018-04-27T04:23:58.509Z,24.70
2018-04-27T04:24:58.522Z,23.30
2018-04-27T04:25:58.539Z,23.50
2018-04-27T04:26:58.556Z,22.00
2018-04-27T04:27:58.562Z,23.00
2018-04-27T04:28:58.576Z,22.60
2018-04-27T04:29:58.590Z,21.00
2018-04-27T04:30:58.603Z,21.40
2018-04-27T04:31:58.617Z,20.90
2018-04-27T04:32:58.642Z,20.90
2018-04-27T04:33:58.657Z,19.30
2018-04-27T04:34:58.669Z,19.60
2018-04-27T04:35:58.683Z,19.60
2018-04-27T04:36:58.696Z,19.40
2018-04-27T04:37:58.712Z,18.50
2018-04-27T04:38:58.740Z,17.60
2018-04-27T04:39:58.741Z,18.20
2018-04-27T04:40:58.749Z,17.10
2018-04-27T04:41:58.767Z,18.00
2018-04-27T04:42:58.776Z,16.80
2018-04-27T04:43:58.791Z,16.10
2018-04-27T04:44:58.804Z,17.10
2018-04-27T04:45:58.829Z,16.80
2018-04-27T04:46:58.844Z,15.20
2018-04-27T04:47:58.857Z,16.10
2018-04-27T04:48:58.872Z,15.40
2018-04-27T04:49:58.883Z,14.70
2018-04-27T04:50:58.898Z,15.00
2018-04-27T04:51:58.924Z,14.40
2018-04-27T04:52:58.925Z,13.90
2018-04-27T04:53:58.939Z,13.60
2018-04-27T04:54:58.952Z,13.80
2018-04-27T04:55:58.967Z,13.80
2018-04-27T04:56:58.991Z,14.00
2018-04-27T04:57:59.006Z,13.90
2018-04-27T04:58:59.019Z,13.10
2018-04-27T04:59:59.032Z,13.70
2018-04-27T05:00:59.045Z,12.90
2018-04-27T05:01:59.059Z,12.90
2018-04-27T05:02:59.084Z,13.30
2018-04-27T05:03:59.098Z,13.20
2018-04-27T05:04:59.113Z,13.70
2018-04-27T05:05:59.125Z,12.80
2018-04-27T05:06:59.141Z,13.30
2018-04-27T05:07:59.155Z,12.60
2018-04-27T05:08:59.165Z,13.70
2018-04-27T05:09:59.180Z,12.00
2018-04-27T05:10:59.205Z,12.50
2018-04-27T05:11:59.219Z,12.50
2018-04-27T05:12:59.232Z,12.50
2018-04-27T05:13:59.246Z,12.00
2018-04-27T05:14:59.259Z,12.60
2018-04-27T05:15:59.276Z,13.00
2018-04-27T05:16:59.298Z,12.20
2018-04-27T05:17:59.389Z,13.20
2018-04-27T05:18:59.382Z,12.80
2018-04-27T05:19:59.340Z,12.20
2018-04-27T05:20:59.365Z,13.00
2018-04-27T05:21:59.367Z,12.50
2018-04-27T05:22:59.393Z,12.40
2018-04-27T05:23:59.406Z,11.70
2018-04-27T05:24:59.418Z,11.90
2018-04-27T05:25:59.432Z,12.50
2018-04-27T05:26:59.445Z,12.40
2018-04-27T05:27:59.476Z,11.60
2018-04-27T05:28:59.488Z,12.40
2018-04-27T05:29:59.511Z,11.40
2018-04-27T05:30:59.513Z,11.50
2018-04-27T05:31:59.526Z,13.10
2018-04-27T05:32:59.551Z,12.10
2018-04-27T05:33:59.565Z,12.50
2018-04-27T05:34:59.579Z,11.90
2018-04-27T05:35:59.593Z,12.90
2018-04-27T05:36:59.605Z,12.10
2018-04-27T05:37:59.631Z,11.50
2018-04-27T05:38:59.645Z,12.00
2018-04-27T05:39:59.658Z,12.30
2018-04-27T05:40:59.672Z,11.60
2018-04-27T05:41:59.686Z,12.20
2018-04-27T05:42:59.711Z,12.10
2018-04-27T05:43:59.725Z,12.10
2018-04-27T05:44:59.737Z,11.90
2018-04-27T05:45:59.752Z,11.60
2018-04-27T05:46:59.765Z,12.60
2018-04-27T05:47:59.790Z,12.40
2018-04-27T05:48:59.842Z,11.90
2018-04-27T05:49:59.819Z,12.40
2018-04-27T05:50:59.832Z,12.10
2018-04-27T05:51:59.864Z,11.90
2018-04-27T05:52:59.870Z,11.30
2018-04-27T05:53:59.884Z,11.10
2018-04-27T05:54:59.897Z,11.40
2018-04-27T05:55:59.936Z,11.10
2018-04-27T05:56:59.942Z,12.00
2018-04-27T05:57:59.950Z,12.00
2018-04-27T05:58:59.966Z,11.70
2018-04-27T05:59:59.991Z,11.70
2018-04-27T06:01:00.003Z,11.60
2018-04-27T06:02:00.019Z,11.00
2018-04-27T06:03:00.031Z,11.60
2018-04-27T06:04:00.070Z,11.30
2018-04-27T06:05:00.071Z,11.30
2018-04-27T06:06:00.083Z,11.40
2018-04-27T06:07:00.100Z,11.70
2018-04-27T06:08:00.124Z,10.70
2018-04-27T06:09:00.136Z,11.50
2018-04-27T06:10:00.151Z,11.00
2018-04-27T06:11:00.177Z,11.10
2018-04-27T06:12:00.195Z,11.40
2018-04-27T06:13:00.204Z,10.20
2018-04-27T06:14:00.230Z,10.70
2018-04-27T06:15:00.242Z,11.00
2018-04-27T06:16:00.256Z,10.80
2018-04-27T06:17:00.270Z,10.50
2018-04-27T06:18:00.296Z,10.10
2018-04-27T06:19:00.310Z,11.30
2018-04-27T06:20:00.322Z,10.50
2018-04-27T06:21:00.353Z,10.90
2018-04-27T06:22:00.363Z,11.00
2018-04-27T06:23:00.380Z,10.90
2018-04-27T06:24:00.415Z,10.90
2018-04-27T06:25:00.417Z,10.50
2018-04-27T06:26:00.442Z,9.40
2018-04-27T06:27:00.454Z,9.80
2018-04-27T06:28:00.467Z,9.90
2018-04-27T06:29:00.494Z,9.60
2018-04-27T06:30:00.507Z,10.80
2018-04-27T06:31:00.534Z,9.80
2018-04-27T06:32:00.548Z,10.00
2018-04-27T06:33:00.560Z,9.60
2018-04-27T06:34:00.586Z,9.60
2018-04-27T06:35:00.600Z,9.40
2018-04-27T06:36:00.627Z,9.60
2018-04-27T06:37:00.638Z,9.80
2018-04-27T06:38:00.665Z,9.90
2018-04-27T06:39:00.679Z,9.70
2018-04-27T06:40:00.705Z,9.80
2018-04-27T06:41:00.717Z,9.80
2018-04-27T06:42:00.744Z,10.10
2018-04-27T06:43:00.757Z,9.10
2018-04-27T06:44:00.785Z,10.00
2018-04-27T06:45:00.796Z,9.70
2018-04-27T06:46:00.838Z,9.80
2018-04-27T06:47:00.837Z,9.50
2018-04-27T06:48:00.862Z,9.50
2018-04-27T06:49:00.888Z,9.70
2018-04-27T06:50:00.916Z,9.70
2018-04-27T06:51:00.927Z,9.10
2018-04-27T06:52:00.941Z,8.50
2018-04-27T06:53:00.969Z,9.10
2018-04-27T06:54:00.994Z,9.00
2018-04-27T06:55:01.007Z,8.90
2018-04-27T06:56:01.032Z,9.20
2018-04-27T06:57:01.059Z,8.70
2018-04-27T06:58:01.073Z,9.20
2018-04-27T06:59:01.098Z,9.70
2018-04-27T07:00:01.125Z,9.20
2018-04-27T07:01:01.142Z,9.50
2018-04-27T07:02:01.163Z,34.10
2018-04-27T07:03:01.189Z,9.80
2018-04-27T07:04:01.203Z,10.10
2018-04-27T07:05:01.309Z,10.50
2018-04-27T07:06:01.261Z,9.50
2018-04-27T07:07:01.282Z,10.50
2018-04-27T07:08:01.294Z,9.30
2018-04-27T07:09:01.327Z,9.50
2018-04-27T07:10:01.347Z,9.40
2018-04-27T07:11:01.372Z,9.30
2018-04-27T07:12:01.387Z,9.30
2018-04-27T07:13:01.413Z,9.50
2018-04-27T07:14:01.439Z,8.60
2018-04-27T07:15:01.466Z,9.90
2018-04-27T07:16:01.478Z,9.40
2018-04-27T07:17:01.531Z,9.00
2018-04-27T07:18:01.529Z,9.00
2018-04-27T07:19:01.558Z,8.60
2018-04-27T07:20:01.582Z,8.90
2018-04-27T07:21:01.607Z,8.70
2018-04-27T07:22:01.627Z,8.60
2018-04-27T07:23:01.648Z,9.20
2018-04-27T07:24:01.673Z,8.60
2018-04-27T07:25:01.701Z,9.20
2018-04-27T07:26:01.737Z,9.90
2018-04-27T07:27:01.753Z,9.60
2018-04-27T07:28:01.778Z,9.70
2018-04-27T07:29:01.803Z,9.30
2018-04-27T07:30:01.823Z,9.10
2018-04-27T07:31:01.843Z,9.80
2018-04-27T07:32:01.869Z,9.50
2018-04-27T07:33:01.894Z,9.80
2018-04-27T07:34:01.921Z,10.10
2018-04-27T07:35:01.946Z,9.00
2018-04-27T07:36:02.007Z,9.40
2018-04-27T07:37:01.998Z,9.80
2018-04-27T07:38:02.026Z,8.70
2018-04-27T07:39:02.039Z,9.60
2018-04-27T07:40:02.065Z,9.40
2018-04-27T07:41:02.092Z,9.80
2018-04-27T07:42:02.117Z,9.40
2018-04-27T07:43:02.142Z,8.80
2018-04-27T07:44:02.172Z,9.50
2018-04-27T07:45:02.195Z,9.50
2018-04-27T07:46:02.221Z,11.90
2018-04-27T07:47:02.246Z,10.40
2018-04-27T07:48:02.272Z,9.70
2018-04-27T07:49:02.299Z,10.60
2018-04-27T07:50:02.324Z,10.10
2018-04-27T07:51:02.350Z,9.70
2018-04-27T07:52:02.377Z,9.60
2018-04-27T07:53:02.402Z,10.10
2018-04-27T07:54:02.428Z,9.30
2018-04-27T07:55:02.458Z,8.50
2018-04-27T07:56:02.469Z,8.90
2018-04-27T07:57:02.494Z,8.60
2018-04-27T07:58:02.520Z,9.00
2018-04-27T07:59:02.544Z,8.90
2018-04-27T08:00:02.579Z,8.90
2018-04-27T08:01:02.597Z,9.00
2018-04-27T08:02:02.683Z,8.80
2018-04-27T08:03:02.648Z,9.00
2018-04-27T08:04:02.680Z,9.00
2018-04-27T08:05:02.701Z,8.00
2018-04-27T08:06:02.727Z,8.40
2018-04-27T08:07:02.752Z,8.40
2018-04-27T08:08:02.779Z,7.70
2018-04-27T08:09:02.807Z,7.90
2018-04-27T08:10:02.831Z,8.40
2018-04-27T08:11:02.857Z,7.80
2018-04-27T08:12:02.883Z,8.10
2018-04-27T08:13:02.910Z,8.30
2018-04-27T08:14:02.935Z,9.00
2018-04-27T08:15:02.966Z,8.40
2018-04-27T08:16:02.986Z,7.50
2018-04-27T08:17:03.013Z,8.50
2018-04-27T08:18:03.039Z,8.60
2018-04-27T08:19:03.065Z,8.80
2018-04-27T08:20:03.090Z,8.80
2018-04-27T08:21:03.105Z,8.80
2018-04-27T08:22:03.131Z,8.60
2018-04-27T08:23:03.156Z,7.60
2018-04-27T08:24:03.181Z,8.40
2018-04-27T08:25:03.209Z,7.80
2018-04-27T08:26:03.234Z,11.20
2018-04-27T08:27:03.259Z,8.80
2018-04-27T08:28:03.273Z,8.40
2018-04-27T08:29:03.298Z,8.30
2018-04-27T08:30:03.325Z,9.80
2018-04-27T08:31:03.339Z,15.20
2018-04-27T08:32:03.365Z,13.00
2018-04-27T08:33:03.391Z,13.00
2018-04-27T08:34:03.417Z,10.00
2018-04-27T08:35:03.429Z,9.00
2018-04-27T08:36:03.469Z,9.00
2018-04-27T08:37:03.481Z,9.90
2018-04-27T08:38:03.506Z,10.00
2018-04-27T08:39:03.521Z,9.30
2018-04-27T08:40:03.548Z,9.20
2018-04-27T08:41:03.573Z,9.40
2018-04-27T08:42:03.588Z,9.50
2018-04-27T08:43:03.612Z,11.20
2018-04-27T08:44:03.639Z,10.00
2018-04-27T08:45:03.653Z,9.80
2018-04-27T08:46:03.679Z,10.70
2018-04-27T08:47:03.704Z,9.30
2018-04-27T08:48:03.717Z,9.70
2018-04-27T08:49:03.744Z,9.40
2018-04-27T08:50:03.783Z,9.80
2018-04-27T08:51:03.784Z,10.10
2018-04-27T08:52:03.809Z,9.70
2018-04-27T08:53:03.837Z,9.00
2018-04-27T08:54:03.849Z,8.60
2018-04-27T08:55:03.878Z,8.60
2018-04-27T08:56:03.901Z,8.50
2018-04-27T08:57:03.927Z,9.00
2018-04-27T08:58:03.940Z,8.60
2018-04-27T08:59:03.967Z,7.90
2018-04-27T09:00:03.983Z,8.00
2018-04-27T09:01:04.010Z,7.30
2018-04-27T09:02:04.037Z,6.50
2018-04-27T09:03:04.048Z,6.50
2018-04-27T09:04:04.073Z,6.60
2018-04-27T09:05:04.099Z,6.40
2018-04-27T09:06:04.125Z,7.60
2018-04-27T09:07:04.140Z,8.00
2018-04-27T09:08:04.165Z,8.70
2018-04-27T09:09:04.190Z,8.90
2018-04-27T09:10:04.205Z,8.70
2018-04-27T09:11:04.231Z,8.90
2018-04-27T09:12:04.257Z,9.30
2018-04-27T09:13:04.270Z,8.70
2018-04-27T09:14:04.295Z,9.00
2018-04-27T09:15:04.323Z,8.80
2018-04-27T09:16:04.335Z,9.30
2018-04-27T09:17:04.362Z,9.90
2018-04-27T09:18:04.388Z,8.90
2018-04-27T09:19:04.401Z,8.70
2018-04-27T09:20:04.426Z,7.20
2018-04-27T09:21:04.452Z,7.30
2018-04-27T09:22:04.478Z,8.20
2018-04-27T09:23:04.493Z,7.50
2018-04-27T09:24:04.520Z,7.50
2018-04-27T09:25:04.533Z,7.80
2018-04-27T09:26:04.559Z,7.10
2018-04-27T09:27:04.583Z,6.80
2018-04-27T09:28:04.615Z,6.80
2018-04-27T09:29:04.623Z,7.30
2018-04-27T09:30:04.650Z,7.00
2018-04-27T09:31:04.676Z,6.60
2018-04-27T09:32:04.688Z,6.20
2018-04-27T09:33:04.715Z,5.70
2018-04-27T09:34:04.741Z,5.60
2018-04-27T09:35:04.759Z,5.60
2018-04-27T09:36:04.780Z,5.20
2018-04-27T09:37:04.806Z,4.90
2018-04-27T09:38:04.820Z,4.90
2018-04-27T09:39:04.845Z,6.40
2018-04-27T09:40:04.871Z,5.40
2018-04-27T09:41:04.929Z,5.20
2018-04-27T09:42:04.912Z,4.60
2018-04-27T09:43:04.937Z,5.10
2018-04-27T09:44:04.964Z,5.40
2018-04-27T09:45:04.978Z,4.80
2018-04-27T09:46:05.003Z,5.40
2018-04-27T09:47:05.028Z,4.80
2018-04-27T09:48:05.042Z,4.70
2018-04-27T09:49:05.068Z,4.40
2018-04-27T09:50:05.096Z,5.20
2018-04-27T09:51:05.109Z,5.10
2018-04-27T09:52:05.133Z,5.10
2018-04-27T09:53:05.159Z,5.10
2018-04-27T09:54:05.185Z,5.60
2018-04-27T09:55:05.198Z,5.80
2018-04-27T09:56:05.226Z,6.00
2018-04-27T09:57:05.252Z,5.20
2018-04-27T09:58:05.264Z,4.90
2018-04-27T09:59:05.289Z,5.20
2018-04-27T10:00:05.316Z,5.00
2018-04-27T10:01:05.340Z,5.40
2018-04-27T10:02:05.354Z,5.10
2018-04-27T10:03:05.383Z,5.10
2018-04-27T10:04:05.407Z,5.00
2018-04-27T10:05:05.421Z,4.80
2018-04-27T10:06:05.447Z,5.00
2018-04-27T10:07:05.471Z,5.10
2018-04-27T10:08:05.496Z,4.30
2018-04-27T10:09:05.522Z,5.00
2018-04-27T10:10:05.548Z,4.90
2018-04-27T10:11:05.563Z,5.60
2018-04-27T10:12:05.589Z,5.60
2018-04-27T10:13:05.614Z,5.00
2018-04-27T10:14:05.641Z,5.00
2018-04-27T10:15:05.748Z,4.70
2018-04-27T10:16:05.692Z,4.90
2018-04-27T10:17:05.735Z,4.50
2018-04-27T10:18:05.757Z,4.50
2018-04-27T10:19:05.783Z,4.40
2018-04-27T10:20:05.810Z,4.20
2018-04-27T10:21:05.834Z,4.60
2018-04-27T10:22:05.861Z,4.70
2018-04-27T10:23:05.890Z,4.80
2018-04-27T10:24:05.914Z,4.50
2018-04-27T10:25:05.953Z,4.40
2018-04-27T10:26:05.980Z,4.50
2018-04-27T10:27:06.005Z,4.60
2018-04-27T10:28:06.043Z,5.00
2018-04-27T10:29:06.069Z,5.00
2018-04-27T10:30:06.108Z,4.60
2018-04-27T10:31:06.213Z,5.10
2018-04-27T10:32:06.160Z,6.30
2018-04-27T10:33:06.198Z,5.10
2018-04-27T10:34:06.222Z,5.70
2018-04-27T10:35:06.254Z,5.10
2018-04-27T10:36:06.288Z,6.60
2018-04-27T10:37:06.314Z,6.30
2018-04-27T10:38:06.352Z,4.80
2018-04-27T10:39:06.377Z,6.20
2018-04-27T10:40:06.416Z,5.30
2018-04-27T10:41:06.444Z,4.30
2018-04-27T10:42:06.479Z,4.30
2018-04-27T10:43:06.520Z,5.30
2018-04-27T10:44:06.544Z,6.70
2018-04-27T10:45:06.582Z,4.70
2018-04-27T10:46:06.608Z,4.30
2018-04-27T10:47:06.648Z,4.00
2018-04-27T10:48:06.673Z,4.30
2018-04-27T10:49:06.711Z,4.10
2018-04-27T10:50:06.751Z,5.10
2018-04-27T10:51:06.789Z,4.40
2018-04-27T10:52:06.813Z,4.30
2018-04-27T10:53:06.854Z,4.20
2018-04-27T10:54:06.911Z,4.40
2018-04-27T10:55:06.933Z,3.90
2018-04-27T10:56:07.000Z,3.70
2018-04-27T10:57:06.999Z,3.80
2018-04-27T10:58:07.034Z,3.40
2018-04-27T10:59:07.071Z,3.50
2018-04-27T11:00:07.111Z,3.50
2018-04-27T11:01:07.148Z,3.20
2018-04-27T11:02:07.174Z,3.00
2018-04-27T11:03:07.214Z,3.70
2018-04-27T11:04:07.252Z,4.10
2018-04-27T11:05:07.294Z,4.30
2018-04-27T11:06:07.328Z,4.10
2018-04-27T11:07:07.369Z,4.10
2018-04-27T11:08:07.406Z,3.90
2018-04-27T11:09:07.433Z,3.60
2018-04-27T11:10:07.473Z,5.10
2018-04-27T11:11:07.510Z,5.60
2018-04-27T11:12:07.551Z,6.50
2018-04-27T11:13:07.587Z,6.30
2018-04-27T11:14:07.626Z,4.60
2018-04-27T11:15:07.665Z,4.60
2018-04-27T11:16:07.703Z,5.00
2018-04-27T11:17:07.740Z,4.70
2018-04-27T11:18:07.766Z,4.70
2018-04-27T11:19:07.806Z,5.20
2018-04-27T11:20:07.847Z,4.60
2018-04-27T11:21:07.883Z,4.70
2018-04-27T11:22:07.913Z,4.80
2018-04-27T11:23:07.947Z,4.50
2018-04-27T11:24:07.973Z,3.90
2018-04-27T11:25:08.013Z,4.20
2018-04-27T11:26:08.086Z,4.20
2018-04-27T11:27:08.076Z,3.80
2018-04-27T11:28:08.116Z,4.10
2018-04-27T11:29:08.154Z,4.00
2018-04-27T11:30:08.180Z,4.20
2018-04-27T11:31:08.219Z,3.90
2018-04-27T11:32:08.256Z,4.00
2018-04-27T11:33:08.296Z,4.10
2018-04-27T11:34:08.322Z,4.10
2018-04-27T11:35:08.379Z,3.60
2018-04-27T11:36:08.402Z,3.60
2018-04-27T11:37:08.436Z,3.80
2018-04-27T11:38:08.475Z,4.00
2018-04-27T11:39:08.512Z,3.90
2018-04-27T11:40:08.541Z,2.90
2018-04-27T11:41:08.578Z,4.10
2018-04-27T11:42:08.620Z,4.30
2018-04-27T11:43:08.656Z,4.70
2018-04-27T11:44:08.706Z,4.60
2018-04-27T11:45:08.734Z,4.90
2018-04-27T11:46:08.770Z,4.70
2018-04-27T11:47:08.809Z,4.50
2018-04-27T11:48:08.836Z,5.00
2018-04-27T11:49:08.874Z,4.90
2018-04-27T11:50:08.912Z,4.70
2018-04-27T11:51:08.961Z,4.50
2018-04-27T11:52:08.989Z,4.70
2018-04-27T11:53:09.111Z,4.50
2018-04-27T11:54:09.052Z,4.40
2018-04-27T11:55:09.091Z,5.40
2018-04-27T11:56:09.131Z,4.20
2018-04-27T11:57:09.155Z,4.40
2018-04-27T11:58:09.194Z,4.30
2018-04-27T11:59:09.232Z,4.10
2018-04-27T12:00:09.257Z,4.00
2018-04-27T12:01:09.297Z,4.20
2018-04-27T12:02:09.336Z,4.00
2018-04-27T12:03:09.361Z,3.40
2018-04-27T12:04:09.406Z,4.00
2018-04-27T12:05:09.451Z,3.70
2018-04-27T12:06:09.464Z,3.50
2018-04-27T12:07:09.504Z,3.70
2018-04-27T12:08:09.541Z,3.30
2018-04-27T12:09:09.566Z,2.90
2018-04-27T12:10:09.606Z,2.80
2018-04-27T12:11:09.644Z,2.40
2018-04-27T12:12:09.683Z,2.70
2018-04-27T12:13:09.712Z,2.80
2018-04-27T12:14:09.747Z,3.10
2018-04-27T12:15:09.773Z,3.10
2018-04-27T12:16:09.811Z,3.30
2018-04-27T12:17:09.841Z,3.20
2018-04-27T12:18:09.879Z,3.20
2018-04-27T12:19:09.915Z,2.90
2018-04-27T12:20:09.941Z,3.20
2018-04-27T12:21:09.981Z,2.70
2018-04-27T12:22:10.018Z,2.70
2018-04-27T12:23:10.043Z,2.80
2018-04-27T12:24:10.081Z,2.70
2018-04-27T12:25:10.107Z,2.80
2018-04-27T12:26:10.147Z,3.00
2018-04-27T12:27:10.184Z,3.10
2018-04-27T12:28:10.210Z,3.10
2018-04-27T12:29:10.250Z,3.00
2018-04-27T12:30:10.287Z,3.00
2018-04-27T12:31:10.355Z,2.80
2018-04-27T12:32:10.352Z,2.90
2018-04-27T12:33:10.391Z,2.70
2018-04-27T12:34:10.430Z,3.00
2018-04-27T12:35:10.456Z,2.90
2018-04-27T12:36:10.481Z,3.20
2018-04-27T12:37:10.520Z,2.80
2018-04-27T12:38:10.558Z,3.30
2018-04-27T12:39:10.588Z,3.50
2018-04-27T12:40:10.622Z,3.80
2018-04-27T12:41:10.662Z,2.80
2018-04-27T12:42:10.686Z,3.40
2018-04-27T12:43:10.725Z,4.10
2018-04-27T12:44:10.751Z,4.00
2018-04-27T12:45:10.791Z,3.60
2018-04-27T12:46:10.816Z,3.90
2018-04-27T12:47:10.855Z,4.10
2018-04-27T12:48:10.879Z,4.10
2018-04-27T12:49:10.918Z,4.30
2018-04-27T12:50:10.947Z,4.00
2018-04-27T12:51:10.983Z,4.10
2018-04-27T12:52:11.024Z,3.70
2018-04-27T12:53:11.048Z,4.30
2018-04-27T12:54:11.075Z,4.30
2018-04-27T12:55:11.111Z,4.10
2018-04-27T12:56:11.158Z,4.60
2018-04-27T12:57:11.165Z,4.20
2018-04-27T12:58:11.203Z,4.40
2018-04-27T12:59:11.229Z,4.20
2018-04-27T13:00:11.267Z,3.80
2018-04-27T13:01:11.292Z,3.70
2018-04-27T13:02:11.320Z,4.30
2018-04-27T13:03:11.358Z,4.00
2018-04-27T13:04:11.384Z,4.30
2018-04-27T13:05:11.421Z,3.90
2018-04-27T13:06:11.448Z,4.20
2018-04-27T13:07:11.475Z,4.10
2018-04-27T13:08:11.513Z,4.20